createdAt,value
2016-11-19T00:00:34.038Z,0
2016-11-19T00:01:34.065Z,0
2016-11-19T00:02:34.322Z,0
2016-11-19T00:03:34.322Z,0
2016-11-19T00:04:34.302Z,0
2016-11-19T00:05:33.979Z,0
2016-11-19T00:06:33.975Z,0
2016-11-19T00:07:33.980Z,0
2016-11-19T00:08:33.953Z,0
2016-11-19T00:09:33.929Z,0
2016-11-19T00:10:33.925Z,0
2016-11-19T00:11:34.225Z,0
2016-11-19T00:12:34.205Z,0
2016-11-19T00:13:34.201Z,0
2016-11-19T00:14:33.884Z,0
2016-11-19T00:15:33.871Z,0
2016-11-19T00:16:33.903Z,0
2016-11-19T00:17:34.147Z,0
2016-11-19T00:18:33.836Z,0
2016-11-19T00:19:33.823Z,0
2016-11-19T00:20:33.825Z,0
2016-11-19T00:21:33.808Z,0
2016-11-19T00:22:33.798Z,0
2016-11-19T00:23:33.791Z,0
2016-11-19T00:24:33.768Z,0
2016-11-19T00:25:33.775Z,0
2016-11-19T00:26:33.782Z,0
2016-11-19T00:27:33.742Z,0
2016-11-19T00:28:59.407Z,0
2016-11-19T00:29:43.982Z,0
2016-11-19T00:30:33.692Z,0
2016-11-19T00:31:33.678Z,0
2016-11-19T00:32:33.667Z,0
2016-11-19T00:33:33.666Z,0
2016-11-19T00:34:33.674Z,0
2016-11-19T00:35:33.632Z,0
2016-11-19T00:36:33.628Z,0
2016-11-19T00:37:33.615Z,0
2016-11-19T00:38:33.904Z,0
2016-11-19T00:39:33.589Z,0
2016-11-19T00:40:33.888Z,0
2016-11-19T00:41:33.568Z,0
2016-11-19T00:42:33.566Z,0
2016-11-19T00:43:33.549Z,0
2016-11-19T00:44:33.538Z,0
2016-11-19T00:45:33.828Z,0
2016-11-19T00:46:33.823Z,0
2016-11-19T00:47:33.566Z,0
2016-11-19T00:48:33.523Z,0
2016-11-19T00:49:33.495Z,0
2016-11-19T00:50:33.487Z,0
2016-11-19T00:51:33.477Z,0
2016-11-19T00:52:33.462Z,0
2016-11-19T00:53:33.450Z,0
2016-11-19T00:54:33.440Z,0
2016-11-19T00:55:33.430Z,0
2016-11-19T00:56:33.427Z,0
2016-11-19T00:57:33.408Z,0
2016-11-19T00:58:33.397Z,0
2016-11-19T00:59:33.388Z,0
2016-11-19T01:00:33.381Z,0
2016-11-19T01:01:33.365Z,0
2016-11-19T01:02:33.360Z,0
2016-11-19T01:03:33.342Z,0
2016-11-19T01:04:33.329Z,0
2016-11-19T01:05:33.353Z,0
2016-11-19T01:06:33.618Z,0
2016-11-19T01:07:33.301Z,0
2016-11-19T01:08:33.315Z,0
2016-11-19T01:09:33.278Z,0
2016-11-19T01:10:33.274Z,0
2016-11-19T01:11:33.566Z,0
2016-11-19T01:12:33.255Z,0
2016-11-19T01:13:33.233Z,0
2016-11-19T01:14:33.223Z,0
2016-11-19T01:15:33.214Z,0
2016-11-19T01:16:33.223Z,0
2016-11-19T01:17:33.189Z,0
2016-11-19T01:18:33.176Z,0
2016-11-19T01:19:33.173Z,0
2016-11-19T01:20:33.166Z,0
2016-11-19T01:21:33.147Z,0
2016-11-19T01:22:33.130Z,0
2016-11-19T01:23:33.128Z,0
2016-11-19T01:24:33.114Z,0
2016-11-19T01:25:33.098Z,0
2016-11-19T01:26:33.094Z,0
2016-11-19T01:27:33.078Z,0
2016-11-19T01:28:33.065Z,0
2016-11-19T01:29:33.060Z,0
2016-11-19T01:30:33.353Z,0
2016-11-19T01:31:33.041Z,0
2016-11-19T01:32:33.023Z,0
2016-11-19T01:33:33.016Z,0
2016-11-19T01:34:33.001Z,0
2016-11-19T01:35:32.994Z,0
2016-11-19T01:36:32.985Z,0
2016-11-19T01:37:32.967Z,0
2016-11-19T01:38:32.955Z,0
2016-11-19T01:39:32.944Z,0
2016-11-19T01:40:32.938Z,0
2016-11-19T01:41:32.961Z,0
2016-11-19T01:42:32.914Z,0
2016-11-19T01:43:33.215Z,0
2016-11-19T01:44:32.892Z,0
2016-11-19T01:45:32.877Z,0
2016-11-19T01:46:32.865Z,0
2016-11-19T01:47:32.860Z,0
2016-11-19T01:48:32.846Z,0
2016-11-19T01:49:32.834Z,0
2016-11-19T01:50:32.828Z,0
2016-11-19T01:51:32.819Z,0
2016-11-19T01:52:32.806Z,0
2016-11-19T01:53:32.798Z,0
2016-11-19T01:54:32.787Z,0
2016-11-19T01:55:32.765Z,0
2016-11-19T01:56:33.113Z,0
2016-11-19T01:57:33.065Z,0
2016-11-19T01:58:32.775Z,0
2016-11-19T01:59:32.737Z,0
2016-11-19T02:00:32.717Z,0
2016-11-19T02:01:32.701Z,0
2016-11-19T02:02:32.701Z,0
2016-11-19T02:03:32.691Z,0
2016-11-19T02:04:32.674Z,0
2016-11-19T02:05:32.667Z,0
2016-11-19T02:06:32.654Z,0
2016-11-19T02:07:32.653Z,0
2016-11-19T02:08:32.941Z,0
2016-11-19T02:09:32.624Z,0
2016-11-19T02:10:32.609Z,0
2016-11-19T02:11:32.596Z,0
2016-11-19T02:12:32.603Z,0
2016-11-19T02:13:32.577Z,0
2016-11-19T02:14:32.572Z,0
2016-11-19T02:15:32.555Z,0
2016-11-19T02:16:32.546Z,0
2016-11-19T02:17:32.535Z,0
2016-11-19T02:18:32.528Z,0
2016-11-19T02:19:32.515Z,0
2016-11-19T02:20:32.512Z,0
2016-11-19T02:21:32.489Z,0
2016-11-19T02:22:32.486Z,0
2016-11-19T02:23:32.468Z,0
2016-11-19T02:24:32.457Z,0
2016-11-19T02:25:32.445Z,0
2016-11-19T02:26:32.431Z,0
2016-11-19T02:27:32.428Z,0
2016-11-19T02:28:32.418Z,0
2016-11-19T02:29:32.714Z,0
2016-11-19T02:30:32.405Z,0
2016-11-19T02:31:32.383Z,0
2016-11-19T02:32:32.364Z,0
2016-11-19T02:33:32.355Z,0
2016-11-19T02:34:32.347Z,0
2016-11-19T02:35:32.341Z,0
2016-11-19T02:36:32.324Z,0
2016-11-19T02:37:32.313Z,0
2016-11-19T02:38:32.303Z,0
2016-11-19T02:39:32.320Z,0
2016-11-19T02:40:32.278Z,0
2016-11-19T02:41:32.263Z,0
2016-11-19T02:42:32.258Z,0
2016-11-19T02:43:32.243Z,0
2016-11-19T02:44:32.232Z,0
2016-11-19T02:45:32.224Z,0
2016-11-19T02:46:32.209Z,0
2016-11-19T02:47:32.201Z,0
2016-11-19T02:48:32.189Z,0
2016-11-19T02:49:32.169Z,0
2016-11-19T02:50:32.159Z,0
2016-11-19T02:51:32.150Z,0
2016-11-19T02:52:32.146Z,0
2016-11-19T02:53:32.134Z,0
2016-11-19T02:54:32.121Z,0
2016-11-19T02:55:32.113Z,0
2016-11-19T02:56:32.105Z,0
2016-11-19T02:57:32.091Z,0
2016-11-19T02:58:32.076Z,0
2016-11-19T02:59:32.062Z,0
2016-11-19T03:00:32.358Z,0
2016-11-19T03:01:32.037Z,0
2016-11-19T03:02:32.060Z,0
2016-11-19T03:03:32.016Z,0
2016-11-19T03:04:32.034Z,0
2016-11-19T03:05:31.996Z,0
2016-11-19T03:06:31.991Z,0
2016-11-19T03:07:31.973Z,0
2016-11-19T03:08:31.965Z,0
2016-11-19T03:09:31.944Z,0
2016-11-19T03:10:31.935Z,0
2016-11-19T03:11:31.929Z,0
2016-11-19T03:12:31.944Z,0
2016-11-19T03:13:31.933Z,0
2016-11-19T03:14:31.897Z,0
2016-11-19T03:15:31.877Z,0
2016-11-19T03:16:32.177Z,0
2016-11-19T03:17:32.167Z,0
2016-11-19T03:18:31.851Z,0
2016-11-19T03:19:31.831Z,0
2016-11-19T03:20:31.823Z,0
2016-11-19T03:21:31.809Z,0
2016-11-19T03:22:32.103Z,0
2016-11-19T03:23:31.781Z,0
2016-11-19T03:24:31.775Z,0
2016-11-19T03:25:31.759Z,0
2016-11-19T03:26:31.750Z,0
2016-11-19T03:27:31.734Z,0
2016-11-19T03:28:31.731Z,0
2016-11-19T03:29:31.713Z,0
2016-11-19T03:30:31.706Z,0
2016-11-19T03:31:31.694Z,0
2016-11-19T03:32:31.679Z,0
2016-11-19T03:33:31.676Z,0
2016-11-19T03:34:31.657Z,0
2016-11-19T03:35:31.652Z,0
2016-11-19T03:36:31.629Z,0
2016-11-19T03:37:31.625Z,0
2016-11-19T03:38:31.615Z,0
2016-11-19T03:39:31.601Z,0
2016-11-19T03:40:31.586Z,0
2016-11-19T03:41:31.571Z,0
2016-11-19T03:42:31.562Z,0
2016-11-19T03:43:31.555Z,0
2016-11-19T03:44:32.088Z,0
2016-11-19T03:45:31.530Z,0
2016-11-19T03:46:31.518Z,0
2016-11-19T03:47:31.500Z,0
2016-11-19T03:48:31.493Z,0
2016-11-19T03:49:31.787Z,0
2016-11-19T03:50:31.464Z,0
2016-11-19T03:51:31.461Z,0
2016-11-19T03:52:31.442Z,0
2016-11-19T03:53:31.445Z,0
2016-11-19T03:54:31.418Z,0
2016-11-19T03:55:31.415Z,0
2016-11-19T03:56:31.396Z,0
2016-11-19T03:57:31.390Z,0
2016-11-19T03:58:31.378Z,0
2016-11-19T03:59:31.364Z,0
2016-11-19T04:00:31.353Z,0
2016-11-19T04:01:31.352Z,0
2016-11-19T04:02:31.328Z,0
2016-11-19T04:03:31.318Z,0
2016-11-19T04:04:31.339Z,0
2016-11-19T04:05:31.291Z,0
2016-11-19T04:06:31.286Z,0
2016-11-19T04:07:31.267Z,0
2016-11-19T04:08:31.270Z,0
2016-11-19T04:09:31.276Z,0
2016-11-19T04:10:31.235Z,0
2016-11-19T04:11:31.224Z,0
2016-11-19T04:12:31.212Z,0
2016-11-19T04:13:31.201Z,0
2016-11-19T04:14:31.186Z,0
2016-11-19T04:15:31.214Z,0
2016-11-19T04:16:31.476Z,0
2016-11-19T04:17:31.157Z,0
2016-11-19T04:18:31.141Z,0
2016-11-19T04:19:31.137Z,0
2016-11-19T04:20:31.119Z,0
2016-11-19T04:21:31.413Z,0
2016-11-19T04:22:31.092Z,0
2016-11-19T04:23:31.082Z,0
2016-11-19T04:24:31.075Z,0
2016-11-19T04:25:31.064Z,0
2016-11-19T04:26:31.049Z,0
2016-11-19T04:27:31.040Z,0
2016-11-19T04:28:31.024Z,0
2016-11-19T04:29:31.052Z,0
2016-11-19T04:30:31.005Z,0
2016-11-19T04:31:30.992Z,0
2016-11-19T04:32:30.987Z,0
2016-11-19T04:33:30.966Z,0
2016-11-19T04:34:30.968Z,0
2016-11-19T04:35:30.953Z,0
2016-11-19T04:36:30.940Z,0
2016-11-19T04:37:30.925Z,0
2016-11-19T04:38:30.919Z,0
2016-11-19T04:39:30.896Z,0
2016-11-19T04:40:30.894Z,0
2016-11-19T04:41:31.188Z,0
2016-11-19T04:42:30.866Z,0
2016-11-19T04:43:30.888Z,0
2016-11-19T04:44:30.849Z,0
2016-11-19T04:45:30.832Z,0
2016-11-19T04:46:30.825Z,0
2016-11-19T04:47:30.816Z,0
2016-11-19T04:48:30.804Z,0
2016-11-19T04:49:30.791Z,0
2016-11-19T04:50:30.783Z,0
2016-11-19T04:51:30.772Z,0
2016-11-19T04:52:30.753Z,0
2016-11-19T04:53:30.746Z,0
2016-11-19T04:54:30.735Z,0
2016-11-19T04:55:30.723Z,0
2016-11-19T04:56:30.710Z,0
2016-11-19T04:57:30.697Z,0
2016-11-19T04:58:30.679Z,0
2016-11-19T04:59:30.673Z,0
2016-11-19T05:00:30.663Z,0
2016-11-19T05:01:30.667Z,0
2016-11-19T05:02:30.638Z,0
2016-11-19T05:03:30.629Z,0
2016-11-19T05:04:30.650Z,0
2016-11-19T05:05:30.605Z,0
2016-11-19T05:06:30.588Z,0
2016-11-19T05:07:30.581Z,0
2016-11-19T05:08:30.568Z,0
2016-11-19T05:09:30.563Z,0
2016-11-19T05:10:30.851Z,0
2016-11-19T05:11:30.533Z,0
2016-11-19T05:12:30.832Z,0
2016-11-19T05:13:30.512Z,0
2016-11-19T05:14:30.502Z,0
2016-11-19T05:15:30.488Z,0
2016-11-19T05:16:30.479Z,0
2016-11-19T05:17:30.470Z,0
2016-11-19T05:18:30.458Z,0
2016-11-19T05:19:30.443Z,0
2016-11-19T05:20:30.440Z,0
2016-11-19T05:21:30.421Z,0
2016-11-19T05:22:30.413Z,0
2016-11-19T05:23:30.395Z,0
2016-11-19T05:24:30.384Z,0
2016-11-19T05:25:30.372Z,0
2016-11-19T05:26:30.368Z,0
2016-11-19T05:27:30.350Z,0
2016-11-19T05:28:30.341Z,0
2016-11-19T05:29:30.319Z,0
2016-11-19T05:30:30.312Z,0
2016-11-19T05:31:30.304Z,0
2016-11-19T05:32:30.294Z,0
2016-11-19T05:33:30.281Z,0
2016-11-19T05:34:30.271Z,0
2016-11-19T05:35:30.257Z,0
2016-11-19T05:36:30.255Z,0
2016-11-19T05:37:30.232Z,0
2016-11-19T05:38:30.219Z,0
2016-11-19T05:39:30.215Z,0
2016-11-19T05:40:30.204Z,0
2016-11-19T05:41:30.189Z,0
2016-11-19T05:42:30.175Z,0
2016-11-19T05:43:30.194Z,0
2016-11-19T05:44:30.154Z,0
2016-11-19T05:45:30.149Z,0
2016-11-19T05:46:30.130Z,0
2016-11-19T05:47:30.152Z,0
2016-11-19T05:48:30.107Z,0
2016-11-19T05:49:30.093Z,0
2016-11-19T05:50:30.084Z,0
2016-11-19T05:51:30.067Z,0
2016-11-19T05:52:30.067Z,0
2016-11-19T05:53:30.044Z,0
2016-11-19T05:54:30.032Z,0
2016-11-19T05:55:30.022Z,0
2016-11-19T05:56:30.011Z,0
2016-11-19T05:57:29.995Z,0
2016-11-19T05:58:29.987Z,0
2016-11-19T05:59:29.976Z,0
2016-11-19T06:00:29.997Z,0
2016-11-19T06:01:29.955Z,0
2016-11-19T06:02:29.947Z,0
2016-11-19T06:03:29.932Z,0
2016-11-19T06:04:29.919Z,0
2016-11-19T06:05:29.937Z,0
2016-11-19T06:06:29.897Z,0
2016-11-19T06:07:29.888Z,0
2016-11-19T06:08:29.876Z,0
2016-11-19T06:09:29.862Z,0
2016-11-19T06:10:29.852Z,0
2016-11-19T06:11:29.834Z,0
2016-11-19T06:12:29.824Z,0
2016-11-19T06:13:29.823Z,0
2016-11-19T06:14:29.800Z,0
2016-11-19T06:15:29.791Z,0
2016-11-19T06:16:29.775Z,0
2016-11-19T06:17:29.774Z,0
2016-11-19T06:18:29.757Z,0
2016-11-19T06:19:29.742Z,0
2016-11-19T06:20:29.730Z,0
2016-11-19T06:21:29.726Z,0
2016-11-19T06:22:29.722Z,0
2016-11-19T06:23:29.702Z,0
2016-11-19T06:24:29.718Z,0
2016-11-19T06:25:29.679Z,0
2016-11-19T06:26:29.658Z,0
2016-11-19T06:27:29.648Z,0
2016-11-19T06:28:29.638Z,0
2016-11-19T06:29:29.632Z,0
2016-11-19T06:30:29.617Z,0
2016-11-19T06:31:29.612Z,5
2016-11-19T06:32:29.592Z,5
2016-11-19T06:33:29.579Z,5
2016-11-19T06:34:29.569Z,5
2016-11-19T06:35:29.563Z,5
2016-11-19T06:36:29.587Z,5
2016-11-19T06:37:29.544Z,5
2016-11-19T06:38:29.525Z,5
2016-11-19T06:39:29.539Z,5
2016-11-19T06:40:29.518Z,5
2016-11-19T06:41:29.494Z,5
2016-11-19T06:42:29.513Z,10
2016-11-19T06:43:29.464Z,10
2016-11-19T06:44:29.459Z,10
2016-11-19T06:45:29.451Z,10
2016-11-19T06:46:29.428Z,10
2016-11-19T06:47:29.725Z,10
2016-11-19T06:48:29.420Z,15
2016-11-19T06:49:29.403Z,15
2016-11-19T06:50:29.387Z,15
2016-11-19T06:51:29.381Z,20
2016-11-19T06:52:29.369Z,20
2016-11-19T06:53:29.355Z,20
2016-11-19T06:54:29.345Z,25
2016-11-19T06:55:29.329Z,25
2016-11-19T06:56:29.328Z,30
2016-11-19T06:57:29.311Z,30
2016-11-19T06:58:29.296Z,35
2016-11-19T06:59:29.287Z,40
2016-11-19T07:00:29.281Z,40
2016-11-19T07:01:29.276Z,45
2016-11-19T07:02:29.257Z,45
2016-11-19T07:03:29.244Z,50
2016-11-19T07:04:29.236Z,50
2016-11-19T07:05:29.223Z,50
2016-11-19T07:06:29.211Z,50
2016-11-19T07:07:29.507Z,50
2016-11-19T07:08:29.184Z,55
2016-11-19T07:09:29.180Z,55
2016-11-19T07:10:29.462Z,55
2016-11-19T07:11:29.158Z,60
2016-11-19T07:12:29.153Z,60
2016-11-19T07:13:29.134Z,65
2016-11-19T07:14:29.159Z,65
2016-11-19T07:15:29.111Z,70
2016-11-19T07:16:29.101Z,75
2016-11-19T07:17:29.100Z,75
2016-11-19T07:18:29.082Z,80
2016-11-19T07:19:29.066Z,80
2016-11-19T07:20:29.365Z,85
2016-11-19T07:21:29.048Z,85
2016-11-19T07:22:29.038Z,85
2016-11-19T07:23:29.031Z,85
2016-11-19T07:24:29.325Z,85
2016-11-19T07:25:29.008Z,85
2016-11-19T07:26:28.996Z,85
2016-11-19T07:27:28.992Z,85
2016-11-19T07:28:28.979Z,80
2016-11-19T07:29:28.972Z,80
2016-11-19T07:30:28.959Z,75
2016-11-19T07:31:28.970Z,75
2016-11-19T07:32:28.948Z,75
2016-11-19T07:33:28.932Z,80
2016-11-19T07:34:28.921Z,80
2016-11-19T07:35:28.900Z,80
2016-11-19T07:36:28.895Z,85
2016-11-19T07:37:29.190Z,90
2016-11-19T07:38:28.879Z,90
2016-11-19T07:39:28.903Z,100
2016-11-19T07:40:28.857Z,100
2016-11-19T07:41:28.840Z,105
2016-11-19T07:42:28.838Z,110
2016-11-19T07:43:28.819Z,110
2016-11-19T07:44:28.819Z,110
2016-11-19T07:45:28.805Z,120
2016-11-19T07:46:28.792Z,125
2016-11-19T07:47:28.777Z,130
2016-11-19T07:48:28.777Z,130
2016-11-19T07:49:28.759Z,130
2016-11-19T07:50:28.751Z,135
2016-11-19T07:51:28.738Z,130
2016-11-19T07:52:28.731Z,130
2016-11-19T07:53:28.728Z,130
2016-11-19T07:54:28.713Z,130
2016-11-19T07:55:28.705Z,130
2016-11-19T07:56:28.692Z,135
2016-11-19T07:57:28.686Z,135
2016-11-19T07:58:28.671Z,135
2016-11-19T07:59:28.666Z,135
2016-11-19T08:00:28.653Z,135
2016-11-19T08:01:28.649Z,140
2016-11-19T08:02:28.636Z,140
2016-11-19T08:03:28.630Z,145
2016-11-19T08:04:28.622Z,140
2016-11-19T08:05:28.616Z,140
2016-11-19T08:06:28.606Z,140
2016-11-19T08:07:28.587Z,140
2016-11-19T08:08:28.586Z,140
2016-11-19T08:09:28.572Z,140
2016-11-19T08:10:28.570Z,140
2016-11-19T08:11:28.553Z,135
2016-11-19T08:12:28.543Z,135
2016-11-19T08:13:28.568Z,135
2016-11-19T08:14:28.525Z,140
2016-11-19T08:15:28.521Z,135
2016-11-19T08:16:28.503Z,135
2016-11-19T08:17:28.492Z,135
2016-11-19T08:18:28.522Z,135
2016-11-19T08:19:28.477Z,135
2016-11-19T08:20:28.473Z,135
2016-11-19T08:21:28.479Z,135
2016-11-19T08:22:28.459Z,140
2016-11-19T08:23:28.438Z,135
2016-11-19T08:24:28.432Z,135
2016-11-19T08:25:28.430Z,135
2016-11-19T08:26:28.731Z,130
2016-11-19T08:27:28.411Z,135
2016-11-19T08:28:28.404Z,135
2016-11-19T08:29:28.385Z,135
2016-11-19T08:30:28.379Z,135
2016-11-19T08:31:28.379Z,135
2016-11-19T08:32:28.363Z,135
2016-11-19T08:33:28.361Z,140
2016-11-19T08:34:28.343Z,140
2016-11-19T08:35:28.336Z,145
2016-11-19T08:36:28.630Z,150
2016-11-19T08:37:28.326Z,150
2016-11-19T08:38:28.305Z,150
2016-11-19T08:39:28.304Z,155
2016-11-19T08:40:28.290Z,155
2016-11-19T08:41:28.279Z,155
2016-11-19T08:42:28.276Z,150
2016-11-19T08:43:28.265Z,155
2016-11-19T08:44:28.259Z,150
2016-11-19T08:45:28.250Z,150
2016-11-19T08:46:28.233Z,150
2016-11-19T08:47:28.535Z,155
2016-11-19T08:48:28.227Z,155
2016-11-19T08:49:28.215Z,160
2016-11-19T08:50:28.204Z,160
2016-11-19T08:51:28.200Z,160
2016-11-19T08:52:28.190Z,160
2016-11-19T08:53:28.183Z,160
2016-11-19T08:54:28.173Z,160
2016-11-19T08:55:28.157Z,160
2016-11-19T08:56:28.178Z,160
2016-11-19T08:57:28.138Z,160
2016-11-19T08:58:28.138Z,165
2016-11-19T08:59:28.126Z,160
2016-11-19T09:00:28.136Z,160
2016-11-19T09:01:28.108Z,165
2016-11-19T09:02:28.101Z,165
2016-11-19T09:03:28.084Z,165
2016-11-19T09:04:28.085Z,165
2016-11-19T09:05:28.076Z,165
2016-11-19T09:06:28.066Z,165
2016-11-19T09:07:28.063Z,165
2016-11-19T09:08:28.351Z,160
2016-11-19T09:09:28.033Z,160
2016-11-19T09:10:28.024Z,165
2016-11-19T09:11:28.015Z,160
2016-11-19T09:12:28.015Z,160
2016-11-19T09:13:28.030Z,160
2016-11-19T09:14:28.003Z,160
2016-11-19T09:15:27.978Z,150
2016-11-19T09:16:28.382Z,135
2016-11-19T09:17:27.969Z,130
2016-11-19T09:18:27.958Z,130
2016-11-19T09:19:28.262Z,130
2016-11-19T09:20:28.267Z,130
2016-11-19T09:21:27.936Z,125
2016-11-19T09:22:27.927Z,125
2016-11-19T09:23:27.918Z,130
2016-11-19T09:24:27.914Z,130
2016-11-19T09:25:27.894Z,130
2016-11-19T09:26:27.899Z,135
2016-11-19T09:27:27.887Z,140
2016-11-19T09:28:27.872Z,135
2016-11-19T09:29:27.875Z,135
2016-11-19T09:30:27.863Z,130
2016-11-19T09:31:27.846Z,130
2016-11-19T09:32:28.145Z,130
2016-11-19T09:33:28.139Z,130
2016-11-19T09:34:27.827Z,130
2016-11-19T09:35:27.844Z,130
2016-11-19T09:36:28.112Z,130
2016-11-19T09:37:27.805Z,125
2016-11-19T09:38:27.804Z,125
2016-11-19T09:39:28.090Z,130
2016-11-19T09:40:28.076Z,130
2016-11-19T09:41:27.761Z,125
2016-11-19T09:42:27.761Z,130
2016-11-19T09:43:28.046Z,135
2016-11-19T09:44:27.743Z,140
2016-11-19T09:45:27.741Z,145
2016-11-19T09:46:27.717Z,150
2016-11-19T09:47:27.714Z,145
2016-11-19T09:48:27.704Z,140
2016-11-19T09:49:27.702Z,140
2016-11-19T09:50:27.693Z,135
2016-11-19T09:51:27.686Z,140
2016-11-19T09:52:27.668Z,150
2016-11-19T09:54:27.655Z,140
2016-11-19T09:55:27.651Z,140
2016-11-19T09:56:27.678Z,145
2016-11-19T09:57:27.641Z,145
2016-11-19T09:58:27.624Z,145
2016-11-19T09:59:27.921Z,155
2016-11-19T10:00:27.614Z,145
2016-11-19T10:01:27.604Z,130
2016-11-19T10:02:27.590Z,135
2016-11-19T10:03:27.586Z,140
2016-11-19T10:04:27.569Z,145
2016-11-19T10:05:27.597Z,150
2016-11-19T10:06:27.861Z,150
2016-11-19T10:07:27.553Z,150
2016-11-19T10:08:27.544Z,155
2016-11-19T10:09:27.534Z,155
2016-11-19T10:10:27.523Z,160
2016-11-19T10:11:27.515Z,160
2016-11-19T10:12:27.529Z,160
2016-11-19T10:13:27.500Z,165
2016-11-19T10:14:27.485Z,175
2016-11-19T10:15:27.494Z,185
2016-11-19T10:16:27.472Z,190
2016-11-19T10:17:27.770Z,195
2016-11-19T10:18:27.484Z,195
2016-11-19T10:19:27.443Z,200
2016-11-19T10:20:27.442Z,205
2016-11-19T10:21:27.737Z,200
2016-11-19T10:22:27.426Z,200
2016-11-19T10:23:27.415Z,195
2016-11-19T10:24:27.715Z,200
2016-11-19T10:25:27.702Z,205
2016-11-19T10:26:27.398Z,210
2016-11-19T10:27:27.387Z,215
2016-11-19T10:28:27.686Z,220
2016-11-19T10:29:27.378Z,220
2016-11-19T10:30:27.368Z,210
2016-11-19T10:31:27.663Z,205
2016-11-19T10:32:27.356Z,205
2016-11-19T10:33:27.339Z,200
2016-11-19T10:34:27.327Z,200
2016-11-19T10:35:27.323Z,200
2016-11-19T10:36:27.923Z,205
2016-11-19T10:37:27.309Z,205
2016-11-19T10:38:27.303Z,200
2016-11-19T10:39:27.291Z,200
2016-11-19T10:40:27.288Z,200
2016-11-19T10:41:27.299Z,200
2016-11-19T10:42:27.269Z,195
2016-11-19T10:43:27.267Z,190
2016-11-19T10:44:27.249Z,190
2016-11-19T10:45:27.243Z,190
2016-11-19T10:46:27.243Z,195
2016-11-19T10:47:27.223Z,200
2016-11-19T10:48:27.225Z,200
2016-11-19T10:49:27.209Z,205
2016-11-19T10:50:27.208Z,205
2016-11-19T10:51:27.229Z,210
2016-11-19T10:52:27.196Z,210
2016-11-19T10:53:27.182Z,210
2016-11-19T10:54:27.182Z,210
2016-11-19T10:55:27.173Z,205
2016-11-19T10:56:27.164Z,200
2016-11-19T10:57:27.154Z,195
2016-11-19T10:58:27.150Z,190
2016-11-19T10:59:27.141Z,190
2016-11-19T11:00:27.129Z,190
2016-11-19T11:01:27.117Z,190
2016-11-19T11:02:27.109Z,180
2016-11-19T11:03:27.107Z,185
2016-11-19T11:04:27.098Z,185
2016-11-19T11:05:27.091Z,195
2016-11-19T11:06:27.082Z,195
2016-11-19T11:07:27.073Z,195
2016-11-19T11:08:27.063Z,195
2016-11-19T11:09:27.059Z,195
2016-11-19T11:10:27.048Z,200
2016-11-19T11:11:27.044Z,205
2016-11-19T11:12:27.040Z,205
2016-11-19T11:13:27.026Z,205
2016-11-19T11:14:27.026Z,205
2016-11-19T11:15:27.019Z,200
2016-11-19T11:16:27.016Z,195
2016-11-19T11:17:26.997Z,190
2016-11-19T11:18:26.987Z,195
2016-11-19T11:19:27.287Z,200
2016-11-19T11:20:26.982Z,195
2016-11-19T11:21:26.969Z,195
2016-11-19T11:22:26.960Z,200
2016-11-19T11:23:26.969Z,200
2016-11-19T11:24:26.951Z,200
2016-11-19T11:25:26.945Z,205
2016-11-19T11:26:26.937Z,210
2016-11-19T11:27:26.925Z,210
2016-11-19T11:28:27.217Z,210
2016-11-19T11:29:26.914Z,205
2016-11-19T11:30:26.932Z,200
2016-11-19T11:31:26.899Z,195
2016-11-19T11:32:26.910Z,190
2016-11-19T11:33:26.884Z,195
2016-11-19T11:34:26.873Z,195
2016-11-19T11:35:26.863Z,195
2016-11-19T11:36:26.860Z,195
2016-11-19T11:37:26.852Z,195
2016-11-19T11:38:27.153Z,190
2016-11-19T11:39:26.835Z,190
2016-11-19T11:40:26.841Z,190
2016-11-19T11:41:26.823Z,180
2016-11-19T11:42:26.806Z,175
2016-11-19T11:43:26.803Z,165
2016-11-19T11:44:26.796Z,160
2016-11-19T11:45:27.090Z,160
2016-11-19T11:46:26.986Z,160
2016-11-19T11:47:26.783Z,160
2016-11-19T11:48:26.776Z,165
2016-11-19T11:49:27.066Z,160
2016-11-19T11:50:26.789Z,160
2016-11-19T11:51:26.758Z,160
2016-11-19T11:52:26.744Z,165
2016-11-19T11:53:26.728Z,160
2016-11-19T11:54:26.728Z,150
2016-11-19T11:55:26.719Z,140
2016-11-19T11:56:26.721Z,135
2016-11-19T11:57:26.696Z,130
2016-11-19T11:58:26.698Z,125
2016-11-19T11:59:26.690Z,120
2016-11-19T12:00:26.687Z,115
2016-11-19T12:01:26.674Z,115
2016-11-19T12:02:26.668Z,115
2016-11-19T12:03:26.989Z,115
2016-11-19T12:04:26.658Z,115
2016-11-19T12:05:26.675Z,120
2016-11-19T12:06:26.633Z,120
2016-11-19T12:07:26.930Z,125
2016-11-19T12:08:26.647Z,120
2016-11-19T12:09:26.614Z,120
2016-11-19T12:10:26.608Z,120
2016-11-19T12:11:26.606Z,125
2016-11-19T12:12:26.591Z,115
2016-11-19T12:13:26.588Z,120
2016-11-19T12:14:26.603Z,120
2016-11-19T12:15:26.578Z,115
2016-11-19T12:16:26.553Z,115
2016-11-19T12:17:26.556Z,105
2016-11-19T12:18:26.554Z,105
2016-11-19T12:19:26.537Z,110
2016-11-19T12:20:26.839Z,105
2016-11-19T12:21:26.529Z,110
2016-11-19T12:22:26.519Z,115
2016-11-19T12:23:26.810Z,120
2016-11-19T12:24:26.511Z,120
2016-11-19T12:25:26.492Z,125
2016-11-19T12:26:26.491Z,130
2016-11-19T12:27:26.483Z,140
2016-11-19T12:28:26.482Z,145
2016-11-19T12:29:26.468Z,145
2016-11-19T12:30:26.471Z,140
2016-11-19T12:31:26.449Z,140
2016-11-19T12:32:26.471Z,140
2016-11-19T12:33:26.435Z,135
2016-11-19T12:34:26.434Z,135
2016-11-19T12:35:26.440Z,130
2016-11-19T12:36:26.417Z,130
2016-11-19T12:37:26.404Z,135
2016-11-19T12:38:26.406Z,135
2016-11-19T12:39:26.387Z,140
2016-11-19T12:40:26.389Z,140
2016-11-19T12:41:26.388Z,145
2016-11-19T12:42:26.367Z,145
2016-11-19T12:43:26.359Z,145
2016-11-19T12:44:26.353Z,145
2016-11-19T12:45:26.353Z,140
2016-11-19T12:46:26.342Z,140
2016-11-19T12:47:26.337Z,135
2016-11-19T12:48:26.328Z,135
2016-11-19T12:49:26.327Z,130
2016-11-19T12:50:26.311Z,130
2016-11-19T12:51:26.306Z,125
2016-11-19T12:52:26.296Z,125
2016-11-19T12:53:26.297Z,125
2016-11-19T12:54:26.598Z,125
2016-11-19T12:55:26.581Z,125
2016-11-19T12:56:26.294Z,130
2016-11-19T12:57:26.261Z,130
2016-11-19T12:58:26.257Z,125
2016-11-19T12:59:26.249Z,125
2016-11-19T13:00:26.240Z,125
2016-11-19T13:01:26.537Z,120
2016-11-19T13:02:26.235Z,115
2016-11-19T13:03:26.217Z,110
2016-11-19T13:04:26.530Z,105
2016-11-19T13:05:26.208Z,100
2016-11-19T13:06:26.208Z,95
2016-11-19T13:07:26.190Z,90
2016-11-19T13:08:26.185Z,85
2016-11-19T13:09:26.183Z,75
2016-11-19T13:10:26.160Z,75
2016-11-19T13:11:26.160Z,75
2016-11-19T13:12:26.153Z,80
2016-11-19T13:13:26.143Z,80
2016-11-19T13:14:26.136Z,85
2016-11-19T13:15:26.137Z,85
2016-11-19T13:16:26.124Z,85
2016-11-19T13:17:26.116Z,85
2016-11-19T13:18:26.108Z,90
2016-11-19T13:19:26.100Z,90
2016-11-19T13:20:26.097Z,90
2016-11-19T13:21:26.083Z,85
2016-11-19T13:22:26.088Z,85
2016-11-19T13:23:26.075Z,85
2016-11-19T13:24:26.060Z,85
2016-11-19T13:25:26.060Z,85
2016-11-19T13:26:26.047Z,85
2016-11-19T13:27:26.040Z,90
2016-11-19T13:28:26.343Z,90
2016-11-19T13:29:26.035Z,90
2016-11-19T13:30:26.021Z,80
2016-11-19T13:31:26.017Z,75
2016-11-19T13:32:26.007Z,65
2016-11-19T13:33:26.001Z,65
2016-11-19T13:34:26.016Z,65
2016-11-19T13:35:25.982Z,65
2016-11-19T13:36:25.988Z,70
2016-11-19T13:37:25.967Z,70
2016-11-19T13:38:25.964Z,75
2016-11-19T13:39:25.956Z,75
2016-11-19T13:40:25.949Z,75
2016-11-19T13:41:25.943Z,70
2016-11-19T13:42:25.935Z,65
2016-11-19T13:43:25.928Z,65
2016-11-19T13:44:26.227Z,60
2016-11-19T13:45:25.910Z,55
2016-11-19T13:46:25.901Z,55
2016-11-19T13:47:25.893Z,50
2016-11-19T13:48:25.893Z,45
2016-11-19T13:49:25.916Z,45
2016-11-19T13:50:25.874Z,40
2016-11-19T13:51:25.865Z,40
2016-11-19T13:52:25.852Z,40
2016-11-19T13:53:25.851Z,35
2016-11-19T13:54:25.848Z,30
2016-11-19T13:55:25.832Z,30
2016-11-19T13:56:25.834Z,20
2016-11-19T13:57:25.818Z,20
2016-11-19T13:58:26.149Z,20
2016-11-19T13:59:25.810Z,25
2016-11-19T14:00:25.804Z,25
2016-11-19T14:01:25.789Z,20
2016-11-19T14:02:25.777Z,20
2016-11-19T14:03:25.774Z,15
2016-11-19T14:04:25.767Z,15
2016-11-19T14:05:25.763Z,15
2016-11-19T14:06:25.756Z,10
2016-11-19T14:07:25.746Z,15
2016-11-19T14:08:25.734Z,15
2016-11-19T14:09:25.735Z,15
2016-11-19T14:10:25.726Z,15
2016-11-19T14:11:25.721Z,20
2016-11-19T14:12:25.708Z,15
2016-11-19T14:13:25.696Z,15
2016-11-19T14:14:25.692Z,15
2016-11-19T14:15:25.683Z,20
2016-11-19T14:16:25.676Z,30
2016-11-19T14:17:25.670Z,35
2016-11-19T14:18:25.661Z,40
2016-11-19T14:19:25.689Z,40